メインページ
METAR-TAF:

METAR-TAF

空港 :

バトルクリーク, ミシガン州, アメリカ合衆国

緯度: 42-18-45N, 経度: 085-14-27W, 海抜: 290m

現時点の気象観測

当レポートは35分前の19:53(UTC)に作成
の風 9kt
気温 1°C
湿度 64%
気圧 1027 hPa
視程: 16.1km
高度7500ftの曇り

METAR: KBTL 071953Z 18009KT 10SM OVC075 01/M05 A3034 RMK AO2 SLP285 T00111050

時間: 15:28 (20:28 UTC)

予報

当レポートは2時間48分前の17:40(UTC)に作成
予報は07日の 18時(UTC)から 08日の 18時(UTC)まで有効
の風 10kt
視程: 10km
高度10000ftの曇り
08日の 1200時(UTC)から
南/南西の風 13kt
視程: 10km
高度9000ftの千切れ雲あり
08日の 1400時(UTC)から
南/南西の風 14kt、最大23ktの突風を伴う
視程: 10km
高度2500ftの千切れ雲あり

TAF: KBTL 071740Z 0718/0818 19010KT P6SM OVC100 FM081200 20013KT P6SM BKN090 WS020/22040KT FM081400 21014G23KT P6SM BKN025

4,000以上の空港の気象観測と天気予報(METAR報とTAF報)

利用可能な観測所は地図上に黄色い丸と赤い丸で示す。

丸の上にカーソルを重ねると観測所名を参照できる。

次にクリックすると気象観測と天気予報を参照できる。

マップの切り替え:黒色「×」印の緑ボタンをクリックして拡大、「-」印の緑ボタンをクリックして縮小、緑色の三角印をクリックして隣りの地図に切り替え


METAR-TAF: